createdAt,value
2023-02-06T00:01:45.636Z,99680.88
2023-02-06T00:04:14.629Z,99678.91
2023-02-06T00:06:46.608Z,99677.59
2023-02-06T00:09:15.996Z,99681.13
2023-02-06T00:11:47.956Z,99679.51
2023-02-06T00:14:16.645Z,99679.40
2023-02-06T00:17:05.500Z,99677.29
2023-02-06T00:19:36.042Z,99679.23
2023-02-06T00:22:04.688Z,99676.02
2023-02-06T00:24:33.605Z,99676.02
2023-02-06T00:27:03.266Z,99676.19
2023-02-06T00:29:32.409Z,99678.23
2023-02-06T00:32:01.717Z,99679.10
2023-02-06T00:34:30.709Z,99680.69
2023-02-06T00:36:59.696Z,99683.27
2023-02-06T00:39:28.796Z,99683.01
2023-02-06T00:41:57.993Z,99680.55
2023-02-06T00:44:27.208Z,99686.00
2023-02-06T00:46:56.287Z,99689.73
2023-02-06T00:49:25.486Z,99695.63
2023-02-06T00:51:55.293Z,99697.66
2023-02-06T00:54:24.118Z,99700.75
2023-02-06T00:56:53.305Z,99697.30
2023-02-06T00:59:22.089Z,99700.55
2023-02-06T01:01:50.987Z,99698.31
2023-02-06T01:04:20.051Z,99693.95
2023-02-06T01:07:02.564Z,99690.00
2023-02-06T01:09:33.118Z,99692.40
2023-02-06T01:12:01.871Z,99695.58
2023-02-06T01:14:30.895Z,99697.11
2023-02-06T01:16:59.659Z,99701.27
2023-02-06T01:19:28.250Z,99704.67
2023-02-06T01:21:57.139Z,99711.49
2023-02-06T01:24:26.126Z,99717.33
2023-02-06T01:26:55.029Z,99723.02
2023-02-06T01:29:23.793Z,99720.27
2023-02-06T01:31:52.537Z,99722.34
2023-02-06T01:34:21.673Z,99724.20
2023-02-06T01:36:50.084Z,99724.46
2023-02-06T01:39:19.152Z,99725.89
2023-02-06T01:41:47.773Z,99734.20
2023-02-06T01:44:18.774Z,99731.91
2023-02-06T01:46:48.535Z,99732.59
2023-02-06T01:49:35.500Z,99733.66
2023-02-06T01:52:17.123Z,99739.20
2023-02-06T01:54:47.348Z,99742.11
2023-02-06T01:57:15.789Z,99746.25
2023-02-06T01:59:46.798Z,99744.54
2023-02-06T02:02:15.246Z,99745.83
2023-02-06T02:04:43.792Z,99745.14
2023-02-06T02:07:48.622Z,99747.41
2023-02-06T02:10:18.235Z,99744.69
2023-02-06T02:12:47.222Z,99748.23
2023-02-06T02:15:16.132Z,99755.59
2023-02-06T02:18:23.816Z,99764.42
2023-02-06T02:21:11.756Z,99767.98
2023-02-06T02:23:42.915Z,99773.55
2023-02-06T02:26:47.626Z,99776.98
2023-02-06T02:29:54.658Z,99786.78
2023-02-06T02:32:49.514Z,99789.24
2023-02-06T02:35:27.637Z,99791.11
2023-02-06T02:38:02.934Z,99795.58
2023-02-06T02:40:40.074Z,99799.44
2023-02-06T02:43:45.492Z,99799.99
2023-02-06T02:46:25.026Z,99798.86
2023-02-06T02:48:55.189Z,99805.64
2023-02-06T02:51:24.039Z,99806.05
2023-02-06T02:53:52.719Z,99803.55
2023-02-06T02:56:23.347Z,99802.50
2023-02-06T02:58:55.844Z,99803.50
2023-02-06T03:01:33.068Z,99800.92
2023-02-06T03:04:08.255Z,99805.46
2023-02-06T03:06:54.242Z,99799.16
2023-02-06T03:09:32.649Z,99795.68
2023-02-06T03:12:14.050Z,99790.42
2023-02-06T03:15:04.589Z,99788.43
2023-02-06T03:17:42.341Z,99787.32
2023-02-06T03:20:11.050Z,99784.44
2023-02-06T03:22:41.030Z,99787.77
2023-02-06T03:25:13.358Z,99789.41
2023-02-06T03:27:42.833Z,99789.52
2023-02-06T03:30:12.623Z,99792.07
2023-02-06T03:32:44.077Z,99789.92
2023-02-06T03:35:18.081Z,99790.27
2023-02-06T03:37:46.878Z,99789.84
2023-02-06T03:40:34.819Z,99786.97
2023-02-06T03:43:04.506Z,99791.23
2023-02-06T03:45:42.854Z,99787.46
2023-02-06T03:48:17.349Z,99789.40
2023-02-06T03:50:47.320Z,99789.61
2023-02-06T03:53:17.479Z,99791.31
2023-02-06T03:55:46.502Z,99791.78
2023-02-06T03:58:15.832Z,99791.81
2023-02-06T04:00:44.771Z,99786.23
2023-02-06T04:03:13.966Z,99789.09
2023-02-06T04:05:43.166Z,99791.83
2023-02-06T04:08:12.039Z,99790.86
2023-02-06T04:10:41.146Z,99792.92
2023-02-06T04:13:10.550Z,99799.25
2023-02-06T04:15:40.089Z,99802.34
2023-02-06T04:18:09.768Z,99805.24
2023-02-06T04:20:41.252Z,99806.39
2023-02-06T04:23:10.520Z,99812.75
2023-02-06T04:25:39.380Z,99814.88
2023-02-06T04:28:08.561Z,99833.80
2023-02-06T04:30:37.545Z,99840.63
2023-02-06T04:33:07.022Z,99842.70
2023-02-06T04:35:36.457Z,99843.86
2023-02-06T04:38:05.402Z,99850.58
2023-02-06T04:40:34.595Z,99852.08
2023-02-06T04:43:03.795Z,99849.50
2023-02-06T04:45:32.576Z,99857.01
2023-02-06T04:48:02.183Z,99862.77
2023-02-06T04:50:32.139Z,99875.52
2023-02-06T04:53:00.894Z,99879.27
2023-02-06T04:55:30.082Z,99880.16
2023-02-06T04:57:59.109Z,99880.89
2023-02-06T05:00:27.971Z,99888.05
2023-02-06T05:02:56.580Z,99890.11
2023-02-06T05:05:25.436Z,99893.00
2023-02-06T05:07:54.940Z,99902.16
2023-02-06T05:10:23.836Z,99906.55
2023-02-06T05:12:53.756Z,99912.02
2023-02-06T05:15:22.937Z,99915.84
2023-02-06T05:17:52.446Z,99921.30
2023-02-06T05:20:21.644Z,99928.38
2023-02-06T05:22:50.838Z,99934.91
2023-02-06T05:25:20.033Z,99941.49
2023-02-06T05:27:49.179Z,99952.77
2023-02-06T05:30:18.173Z,99958.90
2023-02-06T05:32:47.114Z,99963.96
2023-02-06T05:35:16.211Z,99961.58
2023-02-06T05:37:45.210Z,99965.39
2023-02-06T05:40:14.208Z,99964.08
2023-02-06T05:42:42.987Z,99970.25
2023-02-06T05:45:12.090Z,99976.54
2023-02-06T05:47:41.483Z,99980.00
2023-02-06T05:50:10.633Z,99982.16
2023-02-06T05:52:40.763Z,99986.16
2023-02-06T05:55:09.997Z,99989.52
2023-02-06T05:57:39.411Z,99995.44
2023-02-06T06:00:09.934Z,99999.76
2023-02-06T06:02:42.202Z,100006.05
2023-02-06T06:05:11.268Z,100014.73
2023-02-06T06:07:41.213Z,100019.41
2023-02-06T06:10:10.101Z,100018.84
2023-02-06T06:12:39.087Z,100025.98
2023-02-06T06:15:09.675Z,100032.27
2023-02-06T06:17:38.930Z,100041.45
2023-02-06T06:20:09.078Z,100043.08
2023-02-06T06:22:38.809Z,100048.20
2023-02-06T06:25:09.276Z,100044.58
2023-02-06T06:27:40.531Z,100053.25
2023-02-06T06:30:10.642Z,100049.09
2023-02-06T06:32:39.946Z,100045.05
2023-02-06T06:35:09.347Z,100044.73
2023-02-06T06:37:38.138Z,100040.36
2023-02-06T06:40:08.366Z,100040.49
2023-02-06T06:42:37.983Z,100032.85
2023-02-06T06:45:07.882Z,100029.08
2023-02-06T06:47:36.984Z,100030.16
2023-02-06T06:50:06.773Z,100029.45
2023-02-06T06:52:35.773Z,100032.99
2023-02-06T06:55:05.840Z,100033.96
2023-02-06T06:57:36.428Z,100033.49
2023-02-06T07:00:06.254Z,100039.73
2023-02-06T07:02:35.336Z,100038.11
2023-02-06T07:05:05.185Z,100039.98
2023-02-06T07:07:35.034Z,100036.94
2023-02-06T07:10:04.666Z,100038.11
2023-02-06T07:12:34.912Z,100036.25
2023-02-06T07:15:04.508Z,100034.36
2023-02-06T07:17:33.485Z,100036.73
2023-02-06T07:20:02.856Z,100041.13
2023-02-06T07:22:32.493Z,100048.43
2023-02-06T07:25:01.715Z,100046.19
2023-02-06T07:27:30.846Z,100048.63
2023-02-06T07:30:00.114Z,100053.69
2023-02-06T07:32:29.286Z,100060.08
2023-02-06T07:34:58.983Z,100063.11
2023-02-06T07:37:28.607Z,100060.56
2023-02-06T07:39:57.493Z,100068.17
2023-02-06T07:42:26.706Z,100067.85
2023-02-06T07:59:09.905Z,100073.94
2023-02-06T08:01:40.428Z,100077.55
2023-02-06T08:04:10.659Z,100074.78
2023-02-06T08:06:42.852Z,100071.56
2023-02-06T08:09:13.375Z,100070.05
2023-02-06T08:11:49.005Z,100071.01
2023-02-06T08:14:17.896Z,100073.08
2023-02-06T08:16:46.875Z,100077.73
2023-02-06T08:19:15.922Z,100073.92
2023-02-06T08:21:44.840Z,100077.05
2023-02-06T08:24:14.165Z,100080.10
2023-02-06T08:26:44.182Z,100078.64
2023-02-06T08:29:14.793Z,100073.73
2023-02-06T08:31:43.982Z,100069.52
2023-02-06T08:34:14.406Z,100076.47
2023-02-06T08:36:43.798Z,100084.48
2023-02-06T08:39:14.151Z,100089.66
2023-02-06T08:41:43.769Z,100087.98
2023-02-06T08:44:16.352Z,100092.29
2023-02-06T08:46:46.226Z,100094.48
2023-02-06T08:49:18.632Z,100095.18
2023-02-06T08:51:47.759Z,100098.91
2023-02-06T08:54:19.167Z,100102.56
2023-02-06T08:56:48.534Z,100103.27
2023-02-06T08:59:18.351Z,100103.65
2023-02-06T09:01:49.458Z,100101.29
2023-02-06T09:04:19.857Z,100096.13
2023-02-06T09:06:49.575Z,100107.77
2023-02-06T09:09:19.194Z,100111.78
2023-02-06T09:11:48.303Z,100108.47
2023-02-06T09:14:18.178Z,100116.73
2023-02-06T09:16:47.396Z,100117.07
2023-02-06T09:19:16.471Z,100118.04
2023-02-06T09:21:45.154Z,100124.20
2023-02-06T09:24:14.151Z,100126.20
2023-02-06T09:26:58.603Z,100124.22
2023-02-06T09:29:29.744Z,100118.70
2023-02-06T09:31:58.756Z,100116.58
2023-02-06T09:34:27.529Z,100113.95
2023-02-06T09:36:57.068Z,100115.73
2023-02-06T09:39:26.028Z,100120.48
2023-02-06T09:42:06.976Z,100129.45
2023-02-06T09:44:39.265Z,100140.66
2023-02-06T09:47:33.241Z,100146.52
2023-02-06T09:50:17.871Z,100163.39
2023-02-06T09:53:05.186Z,100174.25
2023-02-06T09:55:43.743Z,100179.22
2023-02-06T09:58:19.597Z,100184.40
2023-02-06T10:00:54.627Z,100176.34
2023-02-06T10:03:32.324Z,100180.09
2023-02-06T10:06:04.203Z,100175.32
2023-02-06T10:08:45.521Z,100172.19
2023-02-06T10:11:35.700Z,100168.01
2023-02-06T10:14:10.795Z,100170.34
2023-02-06T10:16:44.600Z,100167.98
2023-02-06T10:19:44.149Z,100161.41
2023-02-06T10:22:21.280Z,100159.02
2023-02-06T10:25:01.442Z,100156.95
2023-02-06T10:27:30.332Z,100155.33
2023-02-06T10:29:59.427Z,100153.73
2023-02-06T10:32:57.202Z,100157.25
2023-02-06T10:35:29.270Z,100153.56
2023-02-06T10:38:21.094Z,100150.16
2023-02-06T10:40:57.152Z,100150.58
2023-02-06T10:43:58.483Z,100140.19
2023-02-06T10:46:41.762Z,100133.92
2023-02-06T10:49:17.646Z,100131.45
2023-02-06T10:51:49.490Z,100131.64
2023-02-06T10:54:32.262Z,100133.58
2023-02-06T10:57:01.107Z,100123.75
2023-02-06T11:00:00.676Z,100117.67
2023-02-06T11:02:45.320Z,100106.89
2023-02-06T11:05:21.496Z,100105.50
2023-02-06T11:07:55.489Z,100118.31
2023-02-06T11:10:25.706Z,100129.44
2023-02-06T11:13:12.955Z,100137.09
2023-02-06T11:16:00.640Z,100153.75
2023-02-06T11:18:40.812Z,100161.19
2023-02-06T11:21:10.728Z,100163.66
2023-02-06T11:23:40.132Z,100167.42
2023-02-06T11:26:17.321Z,100168.58
2023-02-06T11:28:52.862Z,100168.71
2023-02-06T11:31:39.066Z,100164.64
2023-02-06T11:34:08.030Z,100165.46
2023-02-06T11:36:37.764Z,100164.09
2023-02-06T11:39:32.663Z,100161.52
2023-02-06T11:42:23.773Z,100162.00
2023-02-06T11:44:54.202Z,100163.77
2023-02-06T11:47:38.053Z,100161.19
2023-02-06T11:50:13.786Z,100161.70
2023-02-06T11:52:46.738Z,100155.60
2023-02-06T11:55:27.671Z,100152.26
2023-02-06T11:58:12.313Z,100149.92
2023-02-06T12:00:42.656Z,100142.02
2023-02-06T12:03:32.960Z,100140.13
2023-02-06T12:06:15.900Z,100137.59
2023-02-06T12:08:56.401Z,100133.70
2023-02-06T12:11:47.514Z,100132.70
2023-02-06T12:14:21.645Z,100129.98
2023-02-06T12:16:55.462Z,100124.92
2023-02-06T12:19:32.161Z,100118.48
2023-02-06T12:22:27.684Z,100108.70
2023-02-06T12:24:57.009Z,100102.90
2023-02-06T12:27:39.153Z,100097.95
2023-02-06T12:30:27.261Z,100083.60
2023-02-06T12:33:23.289Z,100067.77
2023-02-06T12:36:16.342Z,100056.61
2023-02-06T12:39:00.796Z,100052.33
2023-02-06T12:41:53.347Z,100050.58
2023-02-06T12:44:34.518Z,100049.23
2023-02-06T12:47:19.318Z,100050.40
2023-02-06T12:50:16.136Z,100060.27
2023-02-06T12:52:50.648Z,100071.53
2023-02-06T12:55:24.377Z,100075.73
2023-02-06T12:57:53.447Z,100073.52
2023-02-06T13:00:28.584Z,100072.30
2023-02-06T13:03:05.401Z,100066.61
2023-02-06T13:05:43.345Z,100067.55
2023-02-06T13:08:17.310Z,100064.89
2023-02-06T13:10:48.318Z,100063.46
2023-02-06T13:13:35.942Z,100062.41
2023-02-06T13:16:05.958Z,100066.11
2023-02-06T13:18:41.506Z,100070.32
2023-02-06T13:21:28.965Z,100069.31
2023-02-06T13:24:03.421Z,100073.48
2023-02-06T13:26:56.662Z,100072.42
2023-02-06T13:29:38.001Z,100071.54
2023-02-06T13:32:14.792Z,100071.68
2023-02-06T13:34:54.064Z,100071.77
2023-02-06T13:37:43.903Z,100066.56
2023-02-06T13:40:16.446Z,100062.42
2023-02-06T13:43:09.278Z,100057.64
2023-02-06T13:45:43.326Z,100056.42
2023-02-06T13:48:19.179Z,100049.23
2023-02-06T13:50:51.856Z,100053.46
2023-02-06T13:53:42.688Z,100052.02
2023-02-06T13:56:31.634Z,100057.47
2023-02-06T13:59:07.296Z,100059.45
2023-02-06T14:01:38.566Z,100061.83
2023-02-06T14:04:11.009Z,100065.52
2023-02-06T14:06:44.391Z,100069.66
2023-02-06T14:09:51.175Z,100072.72
2023-02-06T14:12:36.948Z,100076.28
2023-02-06T14:15:21.108Z,100076.48
2023-02-06T14:17:59.302Z,100082.30
2023-02-06T14:20:46.837Z,100082.06
2023-02-06T14:23:50.552Z,100085.58
2023-02-06T14:26:45.333Z,100090.71
2023-02-06T14:29:29.787Z,100097.10
2023-02-06T14:32:42.882Z,100099.09
2023-02-06T14:35:41.705Z,100098.77
2023-02-06T14:38:39.701Z,100099.33
2023-02-06T14:41:13.224Z,100098.91
2023-02-06T14:43:43.669Z,100102.63
2023-02-06T14:46:18.871Z,100101.62
2023-02-06T14:48:52.571Z,100108.34
2023-02-06T14:51:34.643Z,100112.53
2023-02-06T14:54:27.092Z,100115.67
2023-02-06T14:57:01.730Z,100113.05
2023-02-06T14:59:31.234Z,100111.89
2023-02-06T15:02:00.414Z,100106.30
2023-02-06T15:04:30.380Z,100107.35
2023-02-06T15:07:01.126Z,100115.10
2023-02-06T15:09:35.390Z,100119.48
2023-02-06T15:12:18.649Z,100118.89
2023-02-06T15:15:04.933Z,100123.02
2023-02-06T15:17:34.923Z,100120.54
2023-02-06T15:20:20.819Z,100121.39
2023-02-06T15:22:50.316Z,100123.78
2023-02-06T15:25:45.276Z,100131.25
2023-02-06T15:28:19.972Z,100133.72
2023-02-06T15:30:59.645Z,100136.76
2023-02-06T15:33:33.425Z,100139.49
2023-02-06T15:36:03.745Z,100138.21
2023-02-06T15:38:33.427Z,100142.40
2023-02-06T15:41:06.889Z,100151.22
2023-02-06T15:43:36.025Z,100155.78
2023-02-06T15:46:06.143Z,100156.67
2023-02-06T15:48:41.525Z,100164.36
2023-02-06T15:51:31.884Z,100169.35
2023-02-06T15:54:19.799Z,100171.86
2023-02-06T15:57:03.752Z,100178.52
2023-02-06T15:59:37.148Z,100183.09
2023-02-06T16:02:06.167Z,100184.70
2023-02-06T16:04:40.017Z,100188.37
2023-02-06T16:07:20.307Z,100191.29
2023-02-06T16:09:56.966Z,100192.52
2023-02-06T16:12:26.749Z,100198.23
2023-02-06T16:15:05.162Z,100196.80
2023-02-06T16:17:36.836Z,100203.85
2023-02-06T16:20:08.126Z,100202.73
2023-02-06T16:22:38.746Z,100203.67
2023-02-06T16:25:32.440Z,100202.85
2023-02-06T16:28:02.457Z,100203.10
2023-02-06T16:30:33.674Z,100200.95
2023-02-06T16:33:19.349Z,100197.10
2023-02-06T16:35:49.468Z,100202.58
2023-02-06T16:38:18.560Z,100195.95
2023-02-06T16:40:50.649Z,100190.94
2023-02-06T16:43:20.546Z,100189.67
2023-02-06T16:45:50.487Z,100181.66
2023-02-06T16:48:19.387Z,100180.89
2023-02-06T16:50:48.644Z,100177.75
2023-02-06T16:53:23.392Z,100182.33
2023-02-06T16:55:52.466Z,100180.75
2023-02-06T16:58:23.407Z,100180.61
2023-02-06T17:00:53.116Z,100181.52
2023-02-06T17:03:22.308Z,100182.71
2023-02-06T17:05:53.092Z,100181.79
2023-02-06T17:08:24.751Z,100180.59
2023-02-06T17:10:53.910Z,100179.13
2023-02-06T17:13:24.476Z,100179.70
2023-02-06T17:15:54.310Z,100181.29
2023-02-06T17:18:24.088Z,100179.83
2023-02-06T17:20:54.080Z,100179.05
2023-02-06T17:23:23.379Z,100172.90
2023-02-06T17:25:52.568Z,100174.16
2023-02-06T17:28:21.601Z,100175.46
2023-02-06T17:30:51.543Z,100173.77
2023-02-06T17:33:21.282Z,100173.26
2023-02-06T17:35:51.502Z,100166.37
2023-02-06T17:38:20.700Z,100161.05
2023-02-06T17:40:50.110Z,100158.42
2023-02-06T17:43:19.815Z,100156.82
2023-02-06T17:45:49.558Z,100158.98
2023-02-06T17:48:19.755Z,100163.66
2023-02-06T17:50:49.563Z,100162.82
2023-02-06T17:53:18.687Z,100156.79
2023-02-06T17:55:48.470Z,100151.63
2023-02-06T17:58:20.520Z,100151.48
2023-02-06T18:00:50.930Z,100147.61
2023-02-06T18:03:20.874Z,100145.11
2023-02-06T18:06:00.383Z,100149.20
2023-02-06T18:08:29.717Z,100153.02
2023-02-06T18:10:59.326Z,100157.66
2023-02-06T18:13:29.286Z,100160.37
2023-02-06T18:15:58.642Z,100159.44
2023-02-06T18:18:27.846Z,100160.06
2023-02-06T18:20:57.791Z,100161.38
2023-02-06T18:23:27.452Z,100162.98
2023-02-06T18:26:05.669Z,100164.98
2023-02-06T18:28:38.871Z,100169.15
2023-02-06T18:31:24.477Z,100173.64
2023-02-06T18:33:54.457Z,100176.52
2023-02-06T18:36:23.630Z,100180.75
2023-02-06T18:38:53.583Z,100183.14
2023-02-06T18:41:42.020Z,100178.48
2023-02-06T18:44:11.826Z,100180.65
2023-02-06T18:46:42.135Z,100181.20
2023-02-06T18:49:11.749Z,100176.19
2023-02-06T18:51:41.195Z,100175.61
2023-02-06T18:54:10.785Z,100170.73
2023-02-06T18:56:40.369Z,100167.79
2023-02-06T18:59:09.259Z,100164.92
2023-02-06T19:01:38.661Z,100164.52
2023-02-06T19:04:08.201Z,100158.73
2023-02-06T19:06:40.537Z,100156.92
2023-02-06T19:09:10.043Z,100156.65
2023-02-06T19:11:40.261Z,100154.02
2023-02-06T19:14:12.054Z,100152.54
2023-02-06T19:16:45.022Z,100155.42
2023-02-06T19:19:15.338Z,100160.49
2023-02-06T19:21:44.528Z,100165.96
2023-02-06T19:24:15.162Z,100166.36
2023-02-06T19:26:44.766Z,100164.50
2023-02-06T19:29:16.742Z,100164.34
2023-02-06T19:31:46.967Z,100161.46
2023-02-06T19:34:16.764Z,100156.65
2023-02-06T19:36:46.060Z,100156.82
2023-02-06T19:39:15.675Z,100160.59
2023-02-06T19:41:45.997Z,100156.50
2023-02-06T19:44:15.202Z,100151.11
2023-02-06T19:46:44.696Z,100152.65
2023-02-06T19:49:13.999Z,100147.64
2023-02-06T19:51:45.909Z,100149.45
2023-02-06T19:54:15.679Z,100150.89
2023-02-06T19:56:47.178Z,100151.45
2023-02-06T19:59:21.898Z,100155.92
2023-02-06T20:01:59.126Z,100156.62
2023-02-06T20:04:35.679Z,100159.88
2023-02-06T20:07:06.022Z,100159.02
2023-02-06T20:09:37.163Z,100156.41
2023-02-06T20:12:10.078Z,100159.20
2023-02-06T20:14:41.094Z,100160.57
2023-02-06T20:17:10.548Z,100161.98
2023-02-06T20:19:40.002Z,100162.33
2023-02-06T20:22:09.527Z,100160.33
2023-02-06T20:24:38.909Z,100158.48
2023-02-06T20:27:08.931Z,100158.33
2023-02-06T20:29:39.248Z,100157.83
2023-02-06T20:32:08.850Z,100158.11
2023-02-06T20:34:39.178Z,100154.29
2023-02-06T20:37:10.913Z,100153.92
2023-02-06T20:39:41.379Z,100151.64
2023-02-06T20:42:10.991Z,100148.11
2023-02-06T20:44:40.889Z,100152.17
2023-02-06T20:47:10.605Z,100154.42
2023-02-06T20:49:39.726Z,100151.75
2023-02-06T20:52:12.517Z,100153.02
2023-02-06T20:54:43.384Z,100155.80
2023-02-06T20:57:12.989Z,100156.67
2023-02-06T20:59:42.928Z,100159.77
2023-02-06T21:02:12.426Z,100165.73
2023-02-06T21:04:41.935Z,100171.27
2023-02-06T21:07:11.128Z,100170.23
2023-02-06T21:09:42.068Z,100164.21
2023-02-06T21:12:11.686Z,100171.59
2023-02-06T21:14:42.747Z,100172.42
2023-02-06T21:17:12.422Z,100171.77
2023-02-06T21:19:41.832Z,100181.05
2023-02-06T21:22:11.962Z,100180.23
2023-02-06T21:24:41.041Z,100187.25
2023-02-06T21:27:10.552Z,100190.95
2023-02-06T21:29:40.050Z,100197.22
2023-02-06T21:32:14.016Z,100200.55
2023-02-06T21:34:43.570Z,100205.44
2023-02-06T21:37:13.206Z,100205.20
2023-02-06T21:39:41.962Z,100208.67
2023-02-06T21:42:11.712Z,100216.42
2023-02-06T21:44:43.872Z,100213.39
2023-02-06T21:47:13.556Z,100218.02
2023-02-06T21:49:42.644Z,100216.27
2023-02-06T21:52:11.351Z,100216.01
2023-02-06T21:54:43.720Z,100225.44
2023-02-06T21:57:12.722Z,100232.76
2023-02-06T21:59:44.143Z,100233.79
2023-02-06T22:02:13.651Z,100238.55
2023-02-06T22:04:47.151Z,100240.12
2023-02-06T22:07:16.249Z,100238.10
2023-02-06T22:09:45.342Z,100234.55
2023-02-06T22:12:14.538Z,100234.52
2023-02-06T22:14:43.644Z,100230.17
2023-02-06T22:17:12.624Z,100234.23
2023-02-06T22:19:41.842Z,100234.45
2023-02-06T22:22:12.779Z,100236.89
2023-02-06T22:24:41.854Z,100235.73
2023-02-06T22:27:11.976Z,100238.10
2023-02-06T22:29:40.761Z,100238.81
2023-02-06T22:32:09.875Z,100243.24
2023-02-06T22:34:38.742Z,100249.90
2023-02-06T22:37:07.840Z,100249.83
2023-02-06T22:39:38.062Z,100249.59
2023-02-06T22:42:07.460Z,100258.38
2023-02-06T22:44:36.557Z,100263.05
2023-02-06T22:47:06.161Z,100266.72
2023-02-06T22:49:35.051Z,100269.48
2023-02-06T22:52:04.144Z,100268.52
2023-02-06T22:54:33.345Z,100264.41
2023-02-06T22:57:02.444Z,100259.94
2023-02-06T22:59:31.845Z,100263.36
2023-02-06T23:02:02.710Z,100262.37
2023-02-06T23:04:35.161Z,100261.02
2023-02-06T23:07:04.677Z,100261.57
2023-02-06T23:09:35.495Z,100258.25
2023-02-06T23:12:11.660Z,100264.75
2023-02-06T23:14:40.550Z,100262.46
2023-02-06T23:17:10.667Z,100266.36
2023-02-06T23:19:40.318Z,100267.96
2023-02-06T23:22:11.005Z,100269.84
2023-02-06T23:24:40.635Z,100267.12
2023-02-06T23:27:10.330Z,100266.73
2023-02-06T23:29:39.522Z,100267.81
2023-02-06T23:32:08.409Z,100267.04
2023-02-06T23:34:39.096Z,100265.06
2023-02-06T23:37:08.850Z,100267.98
2023-02-06T23:39:37.847Z,100268.73
2023-02-06T23:42:06.525Z,100264.39
2023-02-06T23:44:35.332Z,100263.35
2023-02-06T23:47:04.553Z,100266.66
2023-02-06T23:49:33.449Z,100267.52
2023-02-06T23:52:02.037Z,100272.89
2023-02-06T23:54:31.493Z,100272.48
2023-02-06T23:57:00.685Z,100270.38
2023-02-06T23:59:30.196Z,100272.31
